Bookmark and Share
Track history (hours):
 

Troviken

Last reported at 2014-Feb-21 15:30 UTC. Time now 2014-Apr-24 09:33 UTC.
Position N 01°17' E 103°22'.
Warning: this ship's position is months out of date.

Length 250 m; draft 8.7 m.

Type: Tanker. MMSI: 311066200.

NotesDate/timePositionNaut miles runAvg speedWind from/ knotsBaromVisibWave heightAir tempDewpointWater temp
2014-Feb-21 15:30N 01°17' E 103°22'1112.0
2014-Feb-21 14:33N 01°13' E 103°32'1212.0
2014-Feb-21 13:33N 01°08' E 103°43'1211.7
2014-Feb-21 12:34N 01°13' E 103°54'2 0.1
2014-Feb-20 21:24N 01°15' E 103°55'0 0.0
2014-Feb-20 12:12N 01°15' E 103°55'0 0.0
2014-Feb-20 09:14N 01°15' E 103°55'0 0.1
2014-Feb-20 08:14N 01°15' E 103°55'4 4.9
2014-Feb-20 07:30N 01°16' E 103°58'10 4.8
2014-Feb-20 05:22N 01°26' E 103°55'10 0.4
2014-Feb-19 02:16N 01°15' E 103°54'0 0.0
2014-Feb-18 23:31N 01°15' E 103°54'0 0.0
2014-Feb-18 22:16N 01°15' E 103°54'0 0.1
2014-Feb-18 21:31N 01°15' E 103°55'0 0.0
2014-Feb-18 18:28N 01°15' E 103°54'0 0.0
2014-Feb-18 17:10N 01°15' E 103°54'0 0.0
2014-Feb-18 13:07N 01°15' E 103°54'0 0.0
2014-Feb-18 11:25N 01°15' E 103°54'0 0.0
2014-Feb-18 04:19N 01°15' E 103°54'0 0.0
2014-Feb-18 03:31N 01°15' E 103°54'0 0.0
2014-Feb-18 02:33N 01°15' E 103°54'0 0.0
2014-Feb-18 01:29N 01°15' E 103°54'0 0.1
2014-Feb-18 00:33N 01°15' E 103°54'4 3.9
2014-Feb-17 23:33N 01°12' E 103°52'7 7.3
2014-Feb-17 22:33N 01°16' E 103°45'2 2.3
2014-Feb-17 21:31N 01°18' E 103°43'0 0.0
2014-Feb-17 20:31N 01°18' E 103°43'0 0.0
2014-Feb-16 10:21N 01°17' E 103°43'0 0.0
2014-Feb-16 09:34N 01°18' E 103°43'3 3.2
2014-Feb-16 08:33N 01°16' E 103°46'6 6.2
2014-Feb-16 07:33N 01°12' E 103°41'0 0.1
2014-Feb-16 06:33N 01°12' E 103°41'2 1.8
2014-Feb-16 05:33N 01°12' E 103°39'4 4.3
2014-Feb-16 04:33N 01°08' E 103°38'1 1.0
2014-Feb-16 03:26N 01°07' E 103°38'0 0.2
2014-Feb-16 02:30N 01°07' E 103°37'0 0.0
2014-Feb-15 21:24N 01°07' E 103°37'0 0.1
2014-Feb-15 20:15N 01°07' E 103°37'0 0.1
2014-Feb-15 19:33N 01°07' E 103°37'0 0.1
2014-Feb-15 17:33N 01°07' E 103°38'0 0.0
2014-Feb-15 16:28N 01°07' E 103°38'0 0.1
2014-Feb-15 15:21N 01°07' E 103°38'0 0.1
2014-Feb-15 14:18N 01°07' E 103°37'0 0.1
2014-Feb-15 13:33N 01°07' E 103°37'0 0.0
2014-Feb-15 11:21N 01°07' E 103°38'0 0.0
2014-Feb-15 10:27N 01°07' E 103°38'0 0.1
2014-Feb-15 09:18N 01°07' E 103°38'0 0.0
2014-Feb-15 06:33N 01°07' E 103°38'0 0.1
2014-Feb-15 05:33N 01°07' E 103°38'0 0.3
2014-Feb-15 04:33N 01°07' E 103°38'3 3.5
2014-Feb-15 03:33N 01°10' E 103°38'1010.4
2014-Feb-15 02:33N 01°11' E 103°48'  

Dump ship's entire track history

sailing weather and tide predictions

Troviken — C6ZT9 — position and weather